sensor_id;sensor_type;location;lat;lon;timestamp;P1;durP1;ratioP1;P2;durP2;ratioP2
12798;SDS011;19250;42.646;26.980;2023-05-07T00:01:02;7.45;;;6.55;;
12798;SDS011;19250;42.646;26.980;2023-05-07T00:03:31;10.00;;;7.32;;
12798;SDS011;19250;42.646;26.980;2023-05-07T00:05:58;8.20;;;7.38;;
12798;SDS011;19250;42.646;26.980;2023-05-07T00:08:25;7.47;;;6.78;;
12798;SDS011;19250;42.646;26.980;2023-05-07T00:10:52;9.73;;;7.18;;
12798;SDS011;19250;42.646;26.980;2023-05-07T00:13:20;9.17;;;6.50;;
12798;SDS011;19250;42.646;26.980;2023-05-07T00:15:47;8.18;;;6.25;;
12798;SDS011;19250;42.646;26.980;2023-05-07T00:18:16;8.98;;;6.70;;
12798;SDS011;19250;42.646;26.980;2023-05-07T00:20:46;9.57;;;6.63;;
12798;SDS011;19250;42.646;26.980;2023-05-07T00:23:13;7.90;;;6.70;;
12798;SDS011;19250;42.646;26.980;2023-05-07T00:25:40;8.35;;;6.72;;
12798;SDS011;19250;42.646;26.980;2023-05-07T00:28:08;7.97;;;6.93;;
12798;SDS011;19250;42.646;26.980;2023-05-07T00:30:35;6.95;;;6.25;;
12798;SDS011;19250;42.646;26.980;2023-05-07T00:33:02;6.80;;;6.07;;
12798;SDS011;19250;42.646;26.980;2023-05-07T00:35:31;8.85;;;6.38;;
12798;SDS011;19250;42.646;26.980;2023-05-07T00:37:58;8.97;;;6.90;;
12798;SDS011;19250;42.646;26.980;2023-05-07T00:40:25;7.97;;;6.63;;
12798;SDS011;19250;42.646;26.980;2023-05-07T00:42:53;8.43;;;7.07;;
12798;SDS011;19250;42.646;26.980;2023-05-07T00:45:23;8.05;;;6.55;;
12798;SDS011;19250;42.646;26.980;2023-05-07T00:47:53;10.03;;;6.77;;
12798;SDS011;19250;42.646;26.980;2023-05-07T00:50:21;9.15;;;6.93;;
12798;SDS011;19250;42.646;26.980;2023-05-07T00:52:50;8.02;;;6.80;;
12798;SDS011;19250;42.646;26.980;2023-05-07T00:55:18;9.35;;;6.70;;
12798;SDS011;19250;42.646;26.980;2023-05-07T00:57:45;8.93;;;6.88;;
12798;SDS011;19250;42.646;26.980;2023-05-07T01:00:13;9.48;;;6.50;;
12798;SDS011;19250;42.646;26.980;2023-05-07T01:02:40;9.45;;;6.85;;
12798;SDS011;19250;42.646;26.980;2023-05-07T01:05:09;10.25;;;6.70;;
12798;SDS011;19250;42.646;26.980;2023-05-07T01:07:38;9.13;;;7.03;;
12798;SDS011;19250;42.646;26.980;2023-05-07T01:10:09;8.57;;;6.47;;
12798;SDS011;19250;42.646;26.980;2023-05-07T01:12:37;8.40;;;6.60;;
12798;SDS011;19250;42.646;26.980;2023-05-07T01:15:06;7.70;;;6.88;;
12798;SDS011;19250;42.646;26.980;2023-05-07T01:17:36;9.63;;;7.00;;
12798;SDS011;19250;42.646;26.980;2023-05-07T01:20:05;7.40;;;5.68;;
12798;SDS011;19250;42.646;26.980;2023-05-07T01:22:35;7.65;;;5.85;;
12798;SDS011;19250;42.646;26.980;2023-05-07T01:25:03;6.78;;;4.90;;
12798;SDS011;19250;42.646;26.980;2023-05-07T01:27:32;8.53;;;6.03;;
12798;SDS011;19250;42.646;26.980;2023-05-07T01:30:00;6.35;;;5.70;;
12798;SDS011;19250;42.646;26.980;2023-05-07T01:32:29;8.90;;;5.90;;
12798;SDS011;19250;42.646;26.980;2023-05-07T01:35:00;7.20;;;5.47;;
12798;SDS011;19250;42.646;26.980;2023-05-07T01:37:29;9.00;;;5.45;;
12798;SDS011;19250;42.646;26.980;2023-05-07T01:39:58;6.07;;;5.40;;
12798;SDS011;19250;42.646;26.980;2023-05-07T01:42:26;6.72;;;5.50;;
12798;SDS011;19250;42.646;26.980;2023-05-07T01:44:53;6.53;;;5.85;;
12798;SDS011;19250;42.646;26.980;2023-05-07T01:47:20;8.48;;;6.35;;
12798;SDS011;19250;42.646;26.980;2023-05-07T01:49:48;6.97;;;6.28;;
12798;SDS011;19250;42.646;26.980;2023-05-07T01:52:16;7.40;;;5.75;;
12798;SDS011;19250;42.646;26.980;2023-05-07T01:54:43;6.75;;;4.80;;
12798;SDS011;19250;42.646;26.980;2023-05-07T01:57:12;6.65;;;5.20;;
12798;SDS011;19250;42.646;26.980;2023-05-07T01:59:39;7.47;;;5.23;;
12798;SDS011;19250;42.646;26.980;2023-05-07T02:02:07;7.60;;;5.68;;
12798;SDS011;19250;42.646;26.980;2023-05-07T02:04:34;5.95;;;5.00;;
12798;SDS011;19250;42.646;26.980;2023-05-07T02:07:01;6.72;;;5.10;;
12798;SDS011;19250;42.646;26.980;2023-05-07T02:09:29;8.10;;;5.70;;
12798;SDS011;19250;42.646;26.980;2023-05-07T02:11:56;10.00;;;6.72;;
12798;SDS011;19250;42.646;26.980;2023-05-07T02:14:25;7.10;;;5.10;;
12798;SDS011;19250;42.646;26.980;2023-05-07T02:16:52;5.68;;;4.22;;
12798;SDS011;19250;42.646;26.980;2023-05-07T02:19:19;7.32;;;4.10;;
12798;SDS011;19250;42.646;26.980;2023-05-07T02:21:47;3.83;;;3.30;;
12798;SDS011;19250;42.646;26.980;2023-05-07T02:24:14;6.13;;;3.90;;
12798;SDS011;19250;42.646;26.980;2023-05-07T02:26:41;5.60;;;3.65;;
12798;SDS011;19250;42.646;26.980;2023-05-07T02:29:08;8.75;;;4.43;;
12798;SDS011;19250;42.646;26.980;2023-05-07T02:31:37;8.27;;;4.82;;
12798;SDS011;19250;42.646;26.980;2023-05-07T02:34:04;6.05;;;4.22;;
12798;SDS011;19250;42.646;26.980;2023-05-07T02:36:31;5.82;;;3.80;;
12798;SDS011;19250;42.646;26.980;2023-05-07T02:38:59;4.22;;;3.47;;
12798;SDS011;19250;42.646;26.980;2023-05-07T02:41:26;5.60;;;3.30;;
12798;SDS011;19250;42.646;26.980;2023-05-07T02:43:53;4.97;;;3.20;;
12798;SDS011;19250;42.646;26.980;2023-05-07T02:46:21;4.03;;;3.20;;
12798;SDS011;19250;42.646;26.980;2023-05-07T02:48:49;7.63;;;4.15;;
12798;SDS011;19250;42.646;26.980;2023-05-07T02:51:19;5.72;;;3.47;;
12798;SDS011;19250;42.646;26.980;2023-05-07T02:53:47;6.18;;;4.03;;
12798;SDS011;19250;42.646;26.980;2023-05-07T02:56:15;4.45;;;3.90;;
12798;SDS011;19250;42.646;26.980;2023-05-07T02:58:42;6.03;;;3.75;;
12798;SDS011;19250;42.646;26.980;2023-05-07T03:01:09;4.67;;;3.87;;
12798;SDS011;19250;42.646;26.980;2023-05-07T03:03:39;4.30;;;3.45;;
12798;SDS011;19250;42.646;26.980;2023-05-07T03:06:08;7.43;;;4.77;;
12798;SDS011;19250;42.646;26.980;2023-05-07T03:08:35;5.22;;;3.92;;
12798;SDS011;19250;42.646;26.980;2023-05-07T03:11:03;4.15;;;3.53;;
12798;SDS011;19250;42.646;26.980;2023-05-07T03:13:30;4.85;;;4.00;;
12798;SDS011;19250;42.646;26.980;2023-05-07T03:15:57;4.93;;;3.65;;
12798;SDS011;19250;42.646;26.980;2023-05-07T03:18:25;7.15;;;3.65;;
12798;SDS011;19250;42.646;26.980;2023-05-07T03:20:52;4.70;;;3.20;;
12798;SDS011;19250;42.646;26.980;2023-05-07T03:23:20;4.33;;;3.47;;
12798;SDS011;19250;42.646;26.980;2023-05-07T03:25:48;6.68;;;4.07;;
12798;SDS011;19250;42.646;26.980;2023-05-07T03:28:15;5.20;;;3.57;;
12798;SDS011;19250;42.646;26.980;2023-05-07T03:30:42;8.38;;;3.45;;
12798;SDS011;19250;42.646;26.980;2023-05-07T03:33:09;4.70;;;3.30;;
12798;SDS011;19250;42.646;26.980;2023-05-07T03:35:37;4.15;;;3.50;;
12798;SDS011;19250;42.646;26.980;2023-05-07T03:38:04;3.47;;;3.13;;
12798;SDS011;19250;42.646;26.980;2023-05-07T03:40:33;4.88;;;4.10;;
12798;SDS011;19250;42.646;26.980;2023-05-07T03:43:00;6.90;;;3.35;;
12798;SDS011;19250;42.646;26.980;2023-05-07T03:45:27;6.70;;;3.75;;
12798;SDS011;19250;42.646;26.980;2023-05-07T03:47:55;5.43;;;3.40;;
12798;SDS011;19250;42.646;26.980;2023-05-07T03:50:22;5.47;;;3.10;;
12798;SDS011;19250;42.646;26.980;2023-05-07T03:52:49;5.68;;;3.67;;
12798;SDS011;19250;42.646;26.980;2023-05-07T03:55:16;6.93;;;3.60;;
12798;SDS011;19250;42.646;26.980;2023-05-07T03:57:45;9.67;;;3.90;;
12798;SDS011;19250;42.646;26.980;2023-05-07T04:00:13;6.47;;;4.22;;
12798;SDS011;19250;42.646;26.980;2023-05-07T04:02:40;5.90;;;3.95;;
12798;SDS011;19250;42.646;26.980;2023-05-07T04:05:08;8.10;;;4.10;;
12798;SDS011;19250;42.646;26.980;2023-05-07T04:07:35;5.50;;;3.88;;
12798;SDS011;19250;42.646;26.980;2023-05-07T04:10:03;7.10;;;4.30;;
12798;SDS011;19250;42.646;26.980;2023-05-07T04:12:31;6.13;;;3.63;;
12798;SDS011;19250;42.646;26.980;2023-05-07T04:14:59;5.90;;;3.75;;
12798;SDS011;19250;42.646;26.980;2023-05-07T04:17:26;7.05;;;3.80;;
12798;SDS011;19250;42.646;26.980;2023-05-07T04:19:54;5.70;;;3.73;;
12798;SDS011;19250;42.646;26.980;2023-05-07T04:22:21;5.75;;;3.42;;
12798;SDS011;19250;42.646;26.980;2023-05-07T04:24:48;5.18;;;3.42;;
12798;SDS011;19250;42.646;26.980;2023-05-07T04:27:16;5.35;;;3.42;;
12798;SDS011;19250;42.646;26.980;2023-05-07T04:29:43;7.53;;;3.55;;
12798;SDS011;19250;42.646;26.980;2023-05-07T04:32:14;6.45;;;3.40;;
12798;SDS011;19250;42.646;26.980;2023-05-07T04:34:41;5.95;;;3.92;;
12798;SDS011;19250;42.646;26.980;2023-05-07T04:37:09;7.07;;;4.63;;
12798;SDS011;19250;42.646;26.980;2023-05-07T04:39:36;6.72;;;5.53;;
12798;SDS011;19250;42.646;26.980;2023-05-07T04:42:03;7.35;;;4.68;;
12798;SDS011;19250;42.646;26.980;2023-05-07T04:44:32;8.15;;;4.65;;
12798;SDS011;19250;42.646;26.980;2023-05-07T04:47:00;6.18;;;4.50;;
12798;SDS011;19250;42.646;26.980;2023-05-07T04:49:28;6.43;;;3.90;;
12798;SDS011;19250;42.646;26.980;2023-05-07T04:51:56;6.80;;;3.70;;
12798;SDS011;19250;42.646;26.980;2023-05-07T04:54:23;4.90;;;3.92;;
12798;SDS011;19250;42.646;26.980;2023-05-07T04:56:50;5.93;;;3.53;;
12798;SDS011;19250;42.646;26.980;2023-05-07T04:59:17;5.53;;;3.78;;
12798;SDS011;19250;42.646;26.980;2023-05-07T05:01:45;5.63;;;3.58;;
12798;SDS011;19250;42.646;26.980;2023-05-07T05:04:12;6.80;;;4.20;;
12798;SDS011;19250;42.646;26.980;2023-05-07T05:06:41;6.07;;;4.00;;
12798;SDS011;19250;42.646;26.980;2023-05-07T05:09:08;5.55;;;3.70;;
12798;SDS011;19250;42.646;26.980;2023-05-07T05:11:36;7.50;;;4.20;;
12798;SDS011;19250;42.646;26.980;2023-05-07T05:14:03;6.18;;;3.80;;
12798;SDS011;19250;42.646;26.980;2023-05-07T05:16:30;7.07;;;4.38;;
12798;SDS011;19250;42.646;26.980;2023-05-07T05:18:58;6.80;;;4.82;;
12798;SDS011;19250;42.646;26.980;2023-05-07T05:21:26;4.43;;;2.97;;
12798;SDS011;19250;42.646;26.980;2023-05-07T05:23:54;3.45;;;3.15;;
12798;SDS011;19250;42.646;26.980;2023-05-07T05:26:21;5.00;;;3.13;;
12798;SDS011;19250;42.646;26.980;2023-05-07T05:28:49;5.13;;;3.10;;
12798;SDS011;19250;42.646;26.980;2023-05-07T05:31:16;5.90;;;4.43;;
12798;SDS011;19250;42.646;26.980;2023-05-07T05:33:43;4.45;;;3.70;;
12798;SDS011;19250;42.646;26.980;2023-05-07T05:36:11;5.10;;;3.85;;
12798;SDS011;19250;42.646;26.980;2023-05-07T05:38:38;5.55;;;3.30;;
12798;SDS011;19250;42.646;26.980;2023-05-07T05:41:07;4.43;;;3.30;;
12798;SDS011;19250;42.646;26.980;2023-05-07T05:43:34;5.15;;;3.47;;
12798;SDS011;19250;42.646;26.980;2023-05-07T05:46:01;4.88;;;2.83;;
12798;SDS011;19250;42.646;26.980;2023-05-07T05:48:29;7.18;;;4.30;;
12798;SDS011;19250;42.646;26.980;2023-05-07T05:50:57;5.90;;;3.17;;
12798;SDS011;19250;42.646;26.980;2023-05-07T05:53:24;6.45;;;3.10;;
12798;SDS011;19250;42.646;26.980;2023-05-07T05:55:51;7.73;;;3.40;;
12798;SDS011;19250;42.646;26.980;2023-05-07T05:58:20;5.88;;;3.00;;
12798;SDS011;19250;42.646;26.980;2023-05-07T06:00:47;5.05;;;3.17;;
12798;SDS011;19250;42.646;26.980;2023-05-07T06:03:17;5.93;;;3.40;;
12798;SDS011;19250;42.646;26.980;2023-05-07T06:05:44;9.20;;;3.60;;
12798;SDS011;19250;42.646;26.980;2023-05-07T06:08:12;6.03;;;3.10;;
12798;SDS011;19250;42.646;26.980;2023-05-07T06:10:39;4.65;;;3.00;;
12798;SDS011;19250;42.646;26.980;2023-05-07T06:13:07;5.68;;;3.20;;
12798;SDS011;19250;42.646;26.980;2023-05-07T06:15:35;8.05;;;3.78;;
12798;SDS011;19250;42.646;26.980;2023-05-07T06:18:03;7.68;;;3.92;;
12798;SDS011;19250;42.646;26.980;2023-05-07T06:20:30;17.60;;;5.38;;
12798;SDS011;19250;42.646;26.980;2023-05-07T06:22:57;5.60;;;3.05;;
12798;SDS011;19250;42.646;26.980;2023-05-07T06:25:25;7.38;;;3.85;;
12798;SDS011;19250;42.646;26.980;2023-05-07T06:27:52;7.40;;;3.65;;
12798;SDS011;19250;42.646;26.980;2023-05-07T06:30:19;5.47;;;3.17;;
12798;SDS011;19250;42.646;26.980;2023-05-07T06:32:48;5.28;;;3.08;;
12798;SDS011;19250;42.646;26.980;2023-05-07T06:35:15;7.85;;;3.10;;
12798;SDS011;19250;42.646;26.980;2023-05-07T06:37:42;5.25;;;2.92;;
12798;SDS011;19250;42.646;26.980;2023-05-07T06:40:10;3.97;;;2.75;;
12798;SDS011;19250;42.646;26.980;2023-05-07T06:42:38;6.03;;;2.40;;
12798;SDS011;19250;42.646;26.980;2023-05-07T06:45:06;3.58;;;2.70;;
12798;SDS011;19250;42.646;26.980;2023-05-07T06:47:35;5.57;;;3.00;;
12798;SDS011;19250;42.646;26.980;2023-05-07T06:50:03;4.53;;;2.83;;
12798;SDS011;19250;42.646;26.980;2023-05-07T06:52:31;5.38;;;2.90;;
12798;SDS011;19250;42.646;26.980;2023-05-07T06:54:59;5.50;;;2.70;;
12798;SDS011;19250;42.646;26.980;2023-05-07T06:57:26;6.82;;;2.85;;
12798;SDS011;19250;42.646;26.980;2023-05-07T06:59:53;6.73;;;2.97;;
12798;SDS011;19250;42.646;26.980;2023-05-07T07:02:21;6.18;;;2.60;;
12798;SDS011;19250;42.646;26.980;2023-05-07T07:04:49;4.25;;;2.67;;
12798;SDS011;19250;42.646;26.980;2023-05-07T07:07:17;4.65;;;2.90;;
12798;SDS011;19250;42.646;26.980;2023-05-07T07:09:45;4.15;;;2.92;;
12798;SDS011;19250;42.646;26.980;2023-05-07T07:12:13;4.10;;;2.90;;
12798;SDS011;19250;42.646;26.980;2023-05-07T07:14:40;4.13;;;2.40;;
12798;SDS011;19250;42.646;26.980;2023-05-07T07:17:08;4.18;;;2.65;;
12798;SDS011;19250;42.646;26.980;2023-05-07T07:19:35;5.77;;;3.00;;
12798;SDS011;19250;42.646;26.980;2023-05-07T07:22:04;5.18;;;2.72;;
12798;SDS011;19250;42.646;26.980;2023-05-07T07:24:33;4.50;;;3.05;;
12798;SDS011;19250;42.646;26.980;2023-05-07T07:27:00;4.00;;;2.67;;
12798;SDS011;19250;42.646;26.980;2023-05-07T07:29:27;6.20;;;2.67;;
12798;SDS011;19250;42.646;26.980;2023-05-07T07:31:54;4.63;;;2.70;;
12798;SDS011;19250;42.646;26.980;2023-05-07T07:34:22;3.45;;;2.17;;
12798;SDS011;19250;42.646;26.980;2023-05-07T07:36:49;3.03;;;2.20;;
12798;SDS011;19250;42.646;26.980;2023-05-07T07:39:16;4.15;;;2.33;;
12798;SDS011;19250;42.646;26.980;2023-05-07T07:41:45;6.32;;;2.80;;
12798;SDS011;19250;42.646;26.980;2023-05-07T07:44:12;5.00;;;2.40;;
12798;SDS011;19250;42.646;26.980;2023-05-07T07:46:39;3.63;;;2.50;;
12798;SDS011;19250;42.646;26.980;2023-05-07T07:49:07;5.65;;;3.15;;
12798;SDS011;19250;42.646;26.980;2023-05-07T07:51:34;5.50;;;2.60;;
12798;SDS011;19250;42.646;26.980;2023-05-07T07:54:01;4.32;;;2.60;;
12798;SDS011;19250;42.646;26.980;2023-05-07T07:56:29;4.03;;;2.45;;
12798;SDS011;19250;42.646;26.980;2023-05-07T07:58:58;3.95;;;2.60;;
12798;SDS011;19250;42.646;26.980;2023-05-07T08:01:25;5.72;;;2.45;;
12798;SDS011;19250;42.646;26.980;2023-05-07T08:03:52;5.35;;;2.90;;
12798;SDS011;19250;42.646;26.980;2023-05-07T08:06:19;8.70;;;3.30;;
12798;SDS011;19250;42.646;26.980;2023-05-07T08:08:47;5.15;;;2.50;;
12798;SDS011;19250;42.646;26.980;2023-05-07T08:11:14;4.72;;;2.60;;
12798;SDS011;19250;42.646;26.980;2023-05-07T08:13:41;4.63;;;2.65;;
12798;SDS011;19250;42.646;26.980;2023-05-07T08:16:11;3.63;;;2.33;;
12798;SDS011;19250;42.646;26.980;2023-05-07T08:18:39;5.97;;;2.27;;
12798;SDS011;19250;42.646;26.980;2023-05-07T08:21:06;3.70;;;2.33;;
12798;SDS011;19250;42.646;26.980;2023-05-07T08:23:33;4.40;;;2.40;;
12798;SDS011;19250;42.646;26.980;2023-05-07T08:26:01;4.03;;;2.50;;
12798;SDS011;19250;42.646;26.980;2023-05-07T08:28:28;5.10;;;2.78;;
12798;SDS011;19250;42.646;26.980;2023-05-07T08:30:55;3.63;;;2.38;;
12798;SDS011;19250;42.646;26.980;2023-05-07T08:33:26;5.05;;;2.35;;
12798;SDS011;19250;42.646;26.980;2023-05-07T08:35:53;4.45;;;2.72;;
12798;SDS011;19250;42.646;26.980;2023-05-07T08:38:21;3.50;;;2.42;;
12798;SDS011;19250;42.646;26.980;2023-05-07T08:40:48;2.85;;;2.55;;
12798;SDS011;19250;42.646;26.980;2023-05-07T08:43:15;5.50;;;2.70;;
12798;SDS011;19250;42.646;26.980;2023-05-07T08:45:45;4.35;;;2.90;;
12798;SDS011;19250;42.646;26.980;2023-05-07T08:48:15;3.77;;;2.67;;
12798;SDS011;19250;42.646;26.980;2023-05-07T08:50:44;4.30;;;2.90;;
12798;SDS011;19250;42.646;26.980;2023-05-07T08:53:12;4.43;;;3.25;;
12798;SDS011;19250;42.646;26.980;2023-05-07T08:55:40;3.67;;;2.70;;
12798;SDS011;19250;42.646;26.980;2023-05-07T08:58:07;3.58;;;2.45;;
12798;SDS011;19250;42.646;26.980;2023-05-07T09:00:34;3.50;;;2.40;;
12798;SDS011;19250;42.646;26.980;2023-05-07T09:03:04;4.05;;;2.45;;
12798;SDS011;19250;42.646;26.980;2023-05-07T09:05:31;6.28;;;2.58;;
12798;SDS011;19250;42.646;26.980;2023-05-07T09:08:00;2.63;;;2.30;;
12798;SDS011;19250;42.646;26.980;2023-05-07T09:10:29;3.17;;;2.30;;
12798;SDS011;19250;42.646;26.980;2023-05-07T09:12:59;3.40;;;2.55;;
12798;SDS011;19250;42.646;26.980;2023-05-07T09:15:27;4.65;;;2.42;;
12798;SDS011;19250;42.646;26.980;2023-05-07T09:17:56;4.72;;;2.30;;
12798;SDS011;19250;42.646;26.980;2023-05-07T09:20:27;3.75;;;2.40;;
12798;SDS011;19250;42.646;26.980;2023-05-07T09:22:57;5.40;;;2.30;;
12798;SDS011;19250;42.646;26.980;2023-05-07T09:25:31;6.05;;;2.80;;
12798;SDS011;19250;42.646;26.980;2023-05-07T09:28:00;5.00;;;2.80;;
12798;SDS011;19250;42.646;26.980;2023-05-07T09:30:28;4.63;;;2.60;;
12798;SDS011;19250;42.646;26.980;2023-05-07T09:32:56;3.38;;;2.67;;
12798;SDS011;19250;42.646;26.980;2023-05-07T09:35:25;3.40;;;2.50;;
12798;SDS011;19250;42.646;26.980;2023-05-07T09:37:53;4.37;;;2.43;;
12798;SDS011;19250;42.646;26.980;2023-05-07T09:40:22;3.20;;;2.45;;
12798;SDS011;19250;42.646;26.980;2023-05-07T09:42:51;4.05;;;2.60;;
12798;SDS011;19250;42.646;26.980;2023-05-07T09:45:22;5.95;;;2.80;;
12798;SDS011;19250;42.646;26.980;2023-05-07T09:47:50;6.55;;;2.60;;
12798;SDS011;19250;42.646;26.980;2023-05-07T09:50:22;5.63;;;2.80;;
12798;SDS011;19250;42.646;26.980;2023-05-07T09:52:53;4.72;;;2.50;;
12798;SDS011;19250;42.646;26.980;2023-05-07T10:07:41;3.42;;;2.50;;
12798;SDS011;19250;42.646;26.980;2023-05-07T10:10:08;2.97;;;2.30;;
12798;SDS011;19250;42.646;26.980;2023-05-07T10:12:36;7.22;;;2.47;;
12798;SDS011;19250;42.646;26.980;2023-05-07T10:15:05;4.20;;;2.70;;
12798;SDS011;19250;42.646;26.980;2023-05-07T10:17:35;3.80;;;2.67;;
12798;SDS011;19250;42.646;26.980;2023-05-07T10:20:03;3.72;;;2.60;;
12798;SDS011;19250;42.646;26.980;2023-05-07T10:22:30;3.33;;;2.20;;
12798;SDS011;19250;42.646;26.980;2023-05-07T10:25:06;3.47;;;2.35;;
12798;SDS011;19250;42.646;26.980;2023-05-07T10:27:40;4.28;;;2.22;;
12798;SDS011;19250;42.646;26.980;2023-05-07T10:30:12;2.72;;;2.42;;
12798;SDS011;19250;42.646;26.980;2023-05-07T10:32:45;2.72;;;2.30;;
12798;SDS011;19250;42.646;26.980;2023-05-07T10:35:16;3.90;;;2.40;;
12798;SDS011;19250;42.646;26.980;2023-05-07T10:37:46;3.42;;;2.25;;
12798;SDS011;19250;42.646;26.980;2023-05-07T10:40:16;3.92;;;2.72;;
12798;SDS011;19250;42.646;26.980;2023-05-07T10:42:54;4.30;;;2.30;;
12798;SDS011;19250;42.646;26.980;2023-05-07T10:45:24;2.60;;;2.40;;
12798;SDS011;19250;42.646;26.980;2023-05-07T10:48:08;3.00;;;2.63;;
12798;SDS011;19250;42.646;26.980;2023-05-07T10:50:36;2.47;;;2.10;;
12798;SDS011;19250;42.646;26.980;2023-05-07T10:53:23;3.13;;;2.10;;
12798;SDS011;19250;42.646;26.980;2023-05-07T10:58:53;3.63;;;2.38;;
12798;SDS011;19250;42.646;26.980;2023-05-07T11:04:19;2.40;;;2.05;;
12798;SDS011;19250;42.646;26.980;2023-05-07T11:10:04;2.40;;;2.20;;
12798;SDS011;19250;42.646;26.980;2023-05-07T11:12:50;3.40;;;2.60;;
12798;SDS011;19250;42.646;26.980;2023-05-07T11:15:40;4.75;;;2.33;;
12798;SDS011;19250;42.646;26.980;2023-05-07T11:18:09;4.65;;;2.60;;
12798;SDS011;19250;42.646;26.980;2023-05-07T11:20:50;4.30;;;2.30;;
12798;SDS011;19250;42.646;26.980;2023-05-07T11:23:54;2.50;;;2.30;;
12798;SDS011;19250;42.646;26.980;2023-05-07T11:26:25;2.85;;;2.35;;
12798;SDS011;19250;42.646;26.980;2023-05-07T11:28:55;3.28;;;2.30;;
12798;SDS011;19250;42.646;26.980;2023-05-07T11:31:26;2.83;;;2.35;;
12798;SDS011;19250;42.646;26.980;2023-05-07T11:33:54;2.90;;;2.33;;
12798;SDS011;19250;42.646;26.980;2023-05-07T11:36:22;4.63;;;2.28;;
12798;SDS011;19250;42.646;26.980;2023-05-07T11:38:51;2.70;;;2.10;;
12798;SDS011;19250;42.646;26.980;2023-05-07T11:41:18;5.13;;;2.30;;
12798;SDS011;19250;42.646;26.980;2023-05-07T11:43:57;3.85;;;2.20;;
12798;SDS011;19250;42.646;26.980;2023-05-07T11:46:26;4.07;;;2.63;;
12798;SDS011;19250;42.646;26.980;2023-05-07T11:48:54;2.60;;;2.30;;
12798;SDS011;19250;42.646;26.980;2023-05-07T11:51:22;3.40;;;2.40;;
12798;SDS011;19250;42.646;26.980;2023-05-07T11:53:51;4.10;;;2.63;;
12798;SDS011;19250;42.646;26.980;2023-05-07T11:56:20;4.50;;;2.50;;
12798;SDS011;19250;42.646;26.980;2023-05-07T11:58:47;3.83;;;2.55;;
12798;SDS011;19250;42.646;26.980;2023-05-07T12:01:18;2.73;;;2.40;;
12798;SDS011;19250;42.646;26.980;2023-05-07T12:03:46;5.22;;;2.60;;
12798;SDS011;19250;42.646;26.980;2023-05-07T12:06:14;2.97;;;2.35;;
12798;SDS011;19250;42.646;26.980;2023-05-07T12:08:42;4.68;;;3.10;;
12798;SDS011;19250;42.646;26.980;2023-05-07T12:11:13;2.67;;;2.43;;
12798;SDS011;19250;42.646;26.980;2023-05-07T12:13:43;3.67;;;2.47;;
12798;SDS011;19250;42.646;26.980;2023-05-07T12:16:10;3.78;;;2.60;;
12798;SDS011;19250;42.646;26.980;2023-05-07T12:18:39;3.70;;;2.30;;
12798;SDS011;19250;42.646;26.980;2023-05-07T12:21:07;3.75;;;2.60;;
12798;SDS011;19250;42.646;26.980;2023-05-07T12:23:35;3.20;;;2.45;;
12798;SDS011;19250;42.646;26.980;2023-05-07T12:26:03;4.18;;;2.70;;
12798;SDS011;19250;42.646;26.980;2023-05-07T12:28:31;3.72;;;2.78;;
12798;SDS011;19250;42.646;26.980;2023-05-07T12:31:03;5.63;;;2.90;;
12798;SDS011;19250;42.646;26.980;2023-05-07T12:33:30;8.32;;;2.80;;
12798;SDS011;19250;42.646;26.980;2023-05-07T12:36:02;3.53;;;2.63;;
12798;SDS011;19250;42.646;26.980;2023-05-07T12:38:34;4.93;;;2.80;;
12798;SDS011;19250;42.646;26.980;2023-05-07T12:41:02;6.90;;;2.67;;
12798;SDS011;19250;42.646;26.980;2023-05-07T12:43:30;4.55;;;2.50;;
12798;SDS011;19250;42.646;26.980;2023-05-07T12:45:57;4.45;;;2.50;;
12798;SDS011;19250;42.646;26.980;2023-05-07T12:48:27;3.17;;;2.40;;
12798;SDS011;19250;42.646;26.980;2023-05-07T12:50:55;7.13;;;2.72;;
12798;SDS011;19250;42.646;26.980;2023-05-07T12:53:25;5.00;;;2.70;;
12798;SDS011;19250;42.646;26.980;2023-05-07T12:55:53;3.65;;;2.45;;
12798;SDS011;19250;42.646;26.980;2023-05-07T12:58:23;3.00;;;2.33;;
12798;SDS011;19250;42.646;26.980;2023-05-07T13:00:52;3.60;;;2.25;;
12798;SDS011;19250;42.646;26.980;2023-05-07T13:03:23;5.18;;;2.30;;
12798;SDS011;19250;42.646;26.980;2023-05-07T13:05:52;4.13;;;2.38;;
12798;SDS011;19250;42.646;26.980;2023-05-07T13:08:24;5.55;;;2.50;;
12798;SDS011;19250;42.646;26.980;2023-05-07T13:10:57;5.07;;;2.30;;
12798;SDS011;19250;42.646;26.980;2023-05-07T13:13:28;3.97;;;2.22;;
12798;SDS011;19250;42.646;26.980;2023-05-07T13:15:55;3.58;;;2.30;;
12798;SDS011;19250;42.646;26.980;2023-05-07T13:18:24;3.67;;;2.30;;
12798;SDS011;19250;42.646;26.980;2023-05-07T13:20:51;4.45;;;2.40;;
12798;SDS011;19250;42.646;26.980;2023-05-07T13:23:18;3.80;;;2.33;;
12798;SDS011;19250;42.646;26.980;2023-05-07T13:25:47;3.08;;;2.38;;
12798;SDS011;19250;42.646;26.980;2023-05-07T13:28:14;3.93;;;2.50;;
12798;SDS011;19250;42.646;26.980;2023-05-07T13:30:42;5.38;;;2.60;;
12798;SDS011;19250;42.646;26.980;2023-05-07T13:33:09;3.85;;;2.20;;
12798;SDS011;19250;42.646;26.980;2023-05-07T13:35:36;3.90;;;2.42;;
12798;SDS011;19250;42.646;26.980;2023-05-07T13:38:03;3.95;;;2.20;;
12798;SDS011;19250;42.646;26.980;2023-05-07T13:40:31;3.17;;;2.20;;
12798;SDS011;19250;42.646;26.980;2023-05-07T13:43:00;4.13;;;2.63;;
12798;SDS011;19250;42.646;26.980;2023-05-07T13:45:28;4.85;;;2.40;;
12798;SDS011;19250;42.646;26.980;2023-05-07T13:47:56;3.25;;;2.40;;
12798;SDS011;19250;42.646;26.980;2023-05-07T13:50:23;3.97;;;2.30;;
12798;SDS011;19250;42.646;26.980;2023-05-07T13:52:52;4.07;;;2.70;;
12798;SDS011;19250;42.646;26.980;2023-05-07T13:55:19;4.27;;;2.40;;
12798;SDS011;19250;42.646;26.980;2023-05-07T13:57:47;5.22;;;2.45;;
12798;SDS011;19250;42.646;26.980;2023-05-07T14:00:22;4.32;;;2.47;;
12798;SDS011;19250;42.646;26.980;2023-05-07T14:02:49;4.35;;;2.42;;
12798;SDS011;19250;42.646;26.980;2023-05-07T14:05:17;4.18;;;2.30;;
12798;SDS011;19250;42.646;26.980;2023-05-07T14:07:44;3.63;;;2.40;;
12798;SDS011;19250;42.646;26.980;2023-05-07T14:10:12;5.50;;;2.65;;
12798;SDS011;19250;42.646;26.980;2023-05-07T14:12:39;6.40;;;2.60;;
12798;SDS011;19250;42.646;26.980;2023-05-07T14:15:07;3.67;;;2.23;;
12798;SDS011;19250;42.646;26.980;2023-05-07T14:17:36;3.95;;;2.90;;
12798;SDS011;19250;42.646;26.980;2023-05-07T14:20:04;3.22;;;2.50;;
12798;SDS011;19250;42.646;26.980;2023-05-07T14:22:32;5.10;;;2.80;;
12798;SDS011;19250;42.646;26.980;2023-05-07T14:24:59;3.58;;;2.45;;
12798;SDS011;19250;42.646;26.980;2023-05-07T14:27:27;4.05;;;2.50;;
12798;SDS011;19250;42.646;26.980;2023-05-07T14:29:54;4.32;;;2.25;;
12798;SDS011;19250;42.646;26.980;2023-05-07T14:32:21;3.47;;;2.60;;
12798;SDS011;19250;42.646;26.980;2023-05-07T14:34:50;3.13;;;2.40;;
12798;SDS011;19250;42.646;26.980;2023-05-07T14:37:17;4.45;;;2.70;;
12798;SDS011;19250;42.646;26.980;2023-05-07T14:39:45;3.33;;;2.60;;
12798;SDS011;19250;42.646;26.980;2023-05-07T14:42:12;3.80;;;2.70;;
12798;SDS011;19250;42.646;26.980;2023-05-07T14:44:39;4.35;;;2.50;;
12798;SDS011;19250;42.646;26.980;2023-05-07T14:47:07;3.90;;;2.60;;
12798;SDS011;19250;42.646;26.980;2023-05-07T14:49:34;5.43;;;2.70;;
12798;SDS011;19250;42.646;26.980;2023-05-07T14:52:03;4.22;;;2.60;;
12798;SDS011;19250;42.646;26.980;2023-05-07T14:54:33;3.83;;;2.60;;
12798;SDS011;19250;42.646;26.980;2023-05-07T14:57:00;5.35;;;2.90;;
12798;SDS011;19250;42.646;26.980;2023-05-07T14:59:28;4.22;;;2.97;;
12798;SDS011;19250;42.646;26.980;2023-05-07T15:01:55;4.37;;;3.13;;